Rapid City, SD

10:13 AM MST on January 31, 2015 (GMT -0700)
Custer County | Change Station
CLOSE
Current Station
Airport
Location: Custer,
Elevation: 5600 ft
Nearby Weather Stations

Elev 5600 ft 43.73 °N, 103.62 °W | Updated 20 minutes ago

Overcast
Overcast
27 °F
Feels Like 20 °F
N
7
Wind Variable Wind from ENE

Today
High -- | Low -- °F
--% Chance of Precip.
Yesterday
High -- | Low -- °F
Precip. -- in
7:11 AM 5:01 PM
Waxing Gibbous, 90% visible
Pressure 30.00 in
Visibility 10.0 miles
Clouds Clear
Windchill 20 °F
Dew Point 20 °F
Humidity 75%
Rainfall 0.00 in
Snow Depth Not available.
UV 2 out of 12
Pollen .10 out of 12
Air Quality Not available.
Flu Activity Not available.
METAR KCUT 311653Z AUTO 07006KT 10SM CLR M03/M07 A2991 RMK AO2 SLP157 T10281067 PWINO FZRANO

More Conditions Fewer Conditions

Pressure 30.00 in
Visibility 10.0 miles
Clouds Clear
Windchill 20 °F
Dew Point 20 °F
Humidity 75%
Rainfall 0.00 in
Snow Depth Not available.
UV 2 out of 12
Pollen .10 out of 12
Air Quality Not available.
Flu Activity Not available.
METAR KCUT 311653Z AUTO 07006KT 10SM CLR M03/M07 A2991 RMK AO2 SLP157 T10281067 PWINO FZRANO

More Conditions Fewer Conditions

10-Day Weather Forecast

Almanac

Astronomy

Jan. 31, 2015 Rise Set
Actual Time
Civil Twilight
Nautical Twilight
Astronomical Twilight
Moon
Length of Visible Light
Length of Day
Tomorrow will be .
, % of the Moon is Illuminated

Today's Extremes

State Highs State Lows

Community

WunderPhotos

Upload Photos

1,792,122 photos uploaded!

WunderBlogs® & News

Nearby

Air Quality

  Air Quality AQ Index Pollutant
Not available.

Snow Depth

Station Depth Elevation

Earthquake Activity

City Distance Mag. Time & Date
Minimum magnitude displayed is 2.5.

Coastal Water Temperatures

Place Temperature

Nearby Weather Stations